Lewistown Municipal Airport
KLWT : now visible

Airfield :











YOU CAN JOIN US ON...

 
LOGIN :

Register | Disclaimer

   EN    FR    IT 

 









Legend :    VFR   Marginal VFR   IFR   Intensive IFR   Very Intensive IFR
Visi :
Ceiling :
>= 8 km
>= 3000ft
5 to 8 km
1000 to 3000 ft
1500m to 5 km
500 to 1000 ft
800 to 1500m
200 to 500 ft
< 800m
< 200 ft
Symbols :   Thunderstorms  Fog  Heavy snow  Heavy precipitations  Wind > 20 kt






- Airport Elevation : 4170 ft
- IATA code : LWT


KLWT - Lewistown Municipal

CURRENT METAR :
  • 041454Z AUTO 31009KT 10SM CLR M01/M07 A2980 RMK AO2 SLP116 T10111067 51013

EXPIRED METARs :
  • 041354Z AUTO 23008KT 10SM SCT050 M03/M07 A2979 RMK AO2 SLP118 T10331067
  • 041254Z AUTO 23008KT 10SM OVC110 M03/M06 A2977 RMK AO2 SLP110 T10331061

TAF KLWT
Valid from the 04 at 12:00 until the 05 at 12:00 UTC


041129Z 0412/0512 21009KT P6SM BKN045 OVC070
TEMPO 0412/0414 3SM -SHSN BKN025
FM041600 29007KT P6SM BKN050
FM041800 29011G19KT P6SM SCT050 SCT120



MET'MAP, your aeronautical weather chart ! - Copyright ORBIFLY December 2007 - Disclaimer

ORBIFLY MET'MAP TEAM :

Programming & Development : Alexandra Zaïnal
Concept & original design : Baudouin d'Aumeries
Assistance for programming : Marc-Olivier Méhu
Technical & hardware support : Manuel Goepfert

Contact : metmap@orbifly.com




SOURCES & CREDITS :

   NOAA       Earth
Advisory